Overseas Boston — WJBU — position and weather

sailwx.info

Track history (hours):
 
Tides and Currents Weather Stations Pressure Air Temp Water Temp Dewpoint Dewpoint Depression Visibility Wind Speed Wind Dir Waves Ship Positions

Overseas Boston

Owner: ASC Leasing VI, Inc., Philadelphia, PA. More information available from US FCC via Universal Licensing System and Coast Guard Vessel Documentation Center.

Last reported at 2017-Aug-17 19:20 UTC. Time now 2017-Aug-17 19:32 UTC.
Position N 43°15' W 126°00'.

Length 183 m; draft 8.2 m.

Type: Tanker. MMSI: 338221000.

Date/timePositionNaut miles runAvg speedWind from/ knotsBaromVisibWave heightAir tempDewpointWater temp
2017-Aug-17 19:20N 43°15' W 126°00'513.6
2017-Aug-17 19:00N 43°10' W 126°00'713.5
2017-Aug-17 18:30N 43°04' W 126°00'1113.9
2017-Aug-17 17:42N 42°52' W 126°00'513.9
2017-Aug-17 17:21N 42°47' W 126°00'2713.4
2017-Aug-17 15:19N 42°20' W 126°00'913.2
2017-Aug-17 14:40N 42°12' W 126°00'612.7
2017-Aug-17 14:11N 42°06' W 126°00'212.5
2017-Aug-17 13:59N 42°03' W 126°00'912.4
2017-Aug-17 13:15N 41°54' W 125°59'312.3
2017-Aug-17 13:00N 41°51' W 125°59'612.1
2017-Aug-17 12:30N 41°45' W 125°58'611.9
2017-Aug-17 12:00N 41°39' W 125°58'611.4
2017-Aug-17 11:30N 41°33' W 125°57'611.1
2017-Aug-17 11:00N 41°28' W 125°56'611.0
2017-Aug-17 10:30N 41°22' W 125°56'510.7
2017-Aug-17 10:00N 41°17' W 125°55'610.8
2017-Aug-17 09:26N 41°11' W 125°55'610.8
2017-Aug-17 08:52N 41°05' W 125°54'510.5
2017-Aug-17 08:26N 41°00' W 125°53'2910.3
2017-Aug-17 05:38N 40°31' W 125°50'14012.4
2017-Aug-16 18:24N 38°17' W 125°02'612.5
2017-Aug-16 17:57N 38°12' W 124°59'512.2
2017-Aug-16 17:30N 38°07' W 124°56'812.7
2017-Aug-16 16:55N 37°60' W 124°52'613.5
2017-Aug-16 16:28N 37°54' W 124°49'813.7
2017-Aug-16 15:55N 37°48' W 124°45'613.5
2017-Aug-16 15:30N 37°42' W 124°42'813.5
2017-Aug-16 14:54N 37°35' W 124°38'12114.5
2017-Aug-16 06:35N 35°45' W 123°34'214.5
2017-Aug-16 06:28N 35°44' W 123°34'814.7
2017-Aug-16 05:54N 35°36' W 123°29'614.6
2017-Aug-16 05:30N 35°31' W 123°26'714.4
2017-Aug-16 05:00N 35°24' W 123°23'713.9
2017-Aug-16 04:28N 35°18' W 123°18'714.4
2017-Aug-16 03:58N 35°14' W 123°11'814.3
2017-Aug-16 03:23N 35°08' W 123°03'614.7
2017-Aug-16 02:59N 35°04' W 122°58'715.1
2017-Aug-16 02:30N 35°00' W 122°51'1114.9
2017-Aug-16 01:46N 34°52' W 122°41'615.2
2017-Aug-16 01:23N 34°49' W 122°36'614.8
2017-Aug-16 00:57N 34°44' W 122°30'715.0
2017-Aug-16 00:30N 34°40' W 122°24'714.6
2017-Aug-16 00:00N 34°35' W 122°17'814.5
2017-Aug-15 23:27N 34°30' W 122°09'714.8
2017-Aug-15 22:59N 34°26' W 122°03'1114.9
2017-Aug-15 22:15N 34°18' W 121°53'414.6
2017-Aug-15 22:00N 34°16' W 121°50'714.6
2017-Aug-15 21:30N 34°11' W 121°43'714.9
2017-Aug-15 21:00N 34°06' W 121°36'814.9
2017-Aug-15 20:29N 34°01' W 121°29'714.6
2017-Aug-15 20:00N 33°57' W 121°22'714.6
2017-Aug-15 19:30N 33°53' W 121°15'714.4
2017-Aug-15 19:00N 33°49' W 121°08'714.4
2017-Aug-15 18:30N 33°45' W 121°01'714.3
2017-Aug-15 18:00N 33°42' W 120°53'714.3
2017-Aug-15 17:30N 33°38' W 120°46'713.8
2017-Aug-15 17:00N 33°37' W 120°37'714.7
2017-Aug-15 16:30N 33°38' W 120°29'815.0
2017-Aug-15 16:00N 33°38' W 120°19'714.8
2017-Aug-15 15:30N 33°39' W 120°11'714.5
2017-Aug-15 15:00N 33°39' W 120°02'714.9
2017-Aug-15 14:30N 33°39' W 119°53'815.6
2017-Aug-15 14:00N 33°39' W 119°44'815.5
2017-Aug-15 13:30N 33°40' W 119°34'714.9
2017-Aug-15 13:00N 33°40' W 119°26'714.7
2017-Aug-15 12:30N 33°41' W 119°17'714.4
2017-Aug-15 12:00N 33°41' W 119°08'612.3
2017-Aug-15 11:30N 33°41' W 119°01'611.8
2017-Aug-15 11:00N 33°40' W 118°54'611.7
2017-Aug-15 10:30N 33°40' W 118°47'611.8
2017-Aug-15 10:00N 33°39' W 118°39'611.8
2017-Aug-15 09:30N 33°39' W 118°32'611.7
2017-Aug-15 09:00N 33°38' W 118°25'611.7
2017-Aug-15 08:30N 33°38' W 118°18'510.2
2017-Aug-15 08:00N 33°39' W 118°12'4 8.4
2017-Aug-15 07:31N 33°43' W 118°11'2 1.3
2017-Aug-15 06:12N 33°44' W 118°13'0 0.0
2017-Aug-15 05:30N 33°44' W 118°13'0 0.0
2017-Aug-15 04:54N 33°44' W 118°13'0 0.0
2017-Aug-15 04:30N 33°44' W 118°13'0 0.0
2017-Aug-15 04:00N 33°44' W 118°13'0 0.0
2017-Aug-15 03:30N 33°44' W 118°13'0 0.0
2017-Aug-15 03:00N 33°44' W 118°13'0 0.0
2017-Aug-15 02:30N 33°44' W 118°13'0 0.0
2017-Aug-15 01:57N 33°44' W 118°13'0 0.0
2017-Aug-15 01:30N 33°44' W 118°13'0 0.0
2017-Aug-15 01:00N 33°44' W 118°13'0 0.0
2017-Aug-15 00:30N 33°44' W 118°13'0 0.0
2017-Aug-15 00:00N 33°44' W 118°13'0 0.0
2017-Aug-14 23:30N 33°44' W 118°13'0 0.1
2017-Aug-14 23:00N 33°44' W 118°13'0 0.0
2017-Aug-14 22:30N 33°44' W 118°13'0 0.0
2017-Aug-14 22:01N 33°44' W 118°13'0 0.0
2017-Aug-14 21:30N 33°44' W 118°13'0 0.2
2017-Aug-14 21:01N 33°44' W 118°13'1 1.5
2017-Aug-14 20:31N 33°43' W 118°14'3 5.2
2017-Aug-14 20:01N 33°44' W 118°17'1 1.8
2017-Aug-14 19:28N 33°45' W 118°16'0 0.0
2017-Aug-14 18:58N 33°45' W 118°16'0 0.0
2017-Aug-14 18:28N 33°45' W 118°16'0 0.0
2017-Aug-14 17:58N 33°45' W 118°16'0 0.0
2017-Aug-14 17:28N 33°45' W 118°16'0 0.0
2017-Aug-14 16:58N 33°45' W 118°16'0 0.0
2017-Aug-14 16:28N 33°45' W 118°16'0 0.0
2017-Aug-14 15:52N 33°45' W 118°16'0 0.0
2017-Aug-14 15:28N 33°45' W 118°16'0 0.0
2017-Aug-14 14:58N 33°45' W 118°16'0 0.0
2017-Aug-14 14:28N 33°45' W 118°16'0 0.0
2017-Aug-14 13:58N 33°45' W 118°16'0 0.0
2017-Aug-14 13:28N 33°45' W 118°16'0 0.0
2017-Aug-14 12:58N 33°45' W 118°16'0 0.0
2017-Aug-14 12:28N 33°45' W 118°16'0 0.0
2017-Aug-14 11:58N 33°45' W 118°16'0 0.0
2017-Aug-14 11:28N 33°45' W 118°16'0 0.0
2017-Aug-14 10:55N 33°45' W 118°16'0 0.0
2017-Aug-14 10:25N 33°45' W 118°16'0 0.0
2017-Aug-14 09:58N 33°45' W 118°16'0 0.0
2017-Aug-14 09:28N 33°45' W 118°16'0 0.0
2017-Aug-14 08:55N 33°45' W 118°16'0 0.0
2017-Aug-14 08:28N 33°45' W 118°16'0 0.0
2017-Aug-14 07:58N 33°45' W 118°16'0 0.0
2017-Aug-14 07:28N 33°45' W 118°16'0 0.0
2017-Aug-14 06:58N 33°45' W 118°16'0 0.0
2017-Aug-14 06:28N 33°45' W 118°16'0 0.0
2017-Aug-14 05:58N 33°45' W 118°16'0 0.0
2017-Aug-14 05:28N 33°45' W 118°16'0 0.0
2017-Aug-14 04:58N 33°45' W 118°16'0 0.0
2017-Aug-14 04:28N 33°45' W 118°16'0 0.0
2017-Aug-14 03:58N 33°45' W 118°16'0 0.0
2017-Aug-14 03:28N 33°45' W 118°16'0 0.0
2017-Aug-14 02:58N 33°45' W 118°16'0 0.0
2017-Aug-14 02:28N 33°45' W 118°16'0 0.0
2017-Aug-14 01:58N 33°45' W 118°16'0 0.0
2017-Aug-14 01:28N 33°45' W 118°16'0 0.0
2017-Aug-14 00:58N 33°45' W 118°16'0 0.0
2017-Aug-14 00:28N 33°45' W 118°16'0 0.0
2017-Aug-13 23:58N 33°45' W 118°16'0 0.0
2017-Aug-13 23:28N 33°45' W 118°16'0 0.0
2017-Aug-13 22:58N 33°45' W 118°16'0 0.0
2017-Aug-13 22:28N 33°45' W 118°16'0 0.0
2017-Aug-13 21:58N 33°45' W 118°16'0 0.0
2017-Aug-13 21:28N 33°45' W 118°16'0 0.0
2017-Aug-13 20:58N 33°45' W 118°16'0 0.0
2017-Aug-13 20:28N 33°45' W 118°16'0 0.0
2017-Aug-13 19:55N 33°45' W 118°16'0 0.0
2017-Aug-13 19:28N 33°45' W 118°16'0 0.0
2017-Aug-13 18:58N 33°45' W 118°16'0 0.0
2017-Aug-13 18:28N 33°45' W 118°16'0 0.0
2017-Aug-13 17:52N 33°45' W 118°16'0 0.0
2017-Aug-13 17:28N 33°45' W 118°16'0 0.0
2017-Aug-13 16:58N 33°45' W 118°16'0 0.0
2017-Aug-13 16:28N 33°45' W 118°16'0 0.0
2017-Aug-13 15:58N 33°45' W 118°16'0 0.0
2017-Aug-13 15:28N 33°45' W 118°16'0 0.0
2017-Aug-13 14:55N 33°45' W 118°16'0 0.0
2017-Aug-13 14:28N 33°45' W 118°16'0 0.0
2017-Aug-13 13:58N 33°45' W 118°16'0 0.0
2017-Aug-13 13:28N 33°45' W 118°16'0 0.0
2017-Aug-13 12:58N 33°45' W 118°16'0 0.7
2017-Aug-13 12:30N 33°45' W 118°16'2 3.6
2017-Aug-13 12:00N 33°43' W 118°16'3 6.4
2017-Aug-13 11:29N 33°44' W 118°12'1 1.3
2017-Aug-13 11:00N 33°45' W 118°13'0 0.0
2017-Aug-13 10:29N 33°45' W 118°13'0 0.0
2017-Aug-13 09:59N 33°45' W 118°13'0 0.0
2017-Aug-13 09:29N 33°45' W 118°13'0 0.0
2017-Aug-13 08:59N 33°45' W 118°13'0 0.0
2017-Aug-13 08:26N 33°45' W 118°13'0 0.0
2017-Aug-13 07:56N 33°45' W 118°13'0 0.0
2017-Aug-13 07:29N 33°45' W 118°13'0 0.0
2017-Aug-13 06:59N 33°45' W 118°13'0 0.0
2017-Aug-13 06:23N 33°45' W 118°13'0 0.0
2017-Aug-13 05:59N 33°45' W 118°13'0 0.0
2017-Aug-13 05:26N 33°45' W 118°13'0 0.0
2017-Aug-13 04:50N 33°45' W 118°13'0 0.0
2017-Aug-13 04:26N 33°45' W 118°13'0 0.0
2017-Aug-13 03:59N 33°45' W 118°13'0 0.0
2017-Aug-13 03:29N 33°45' W 118°13'0 0.0
2017-Aug-13 02:56N 33°45' W 118°13'0 0.0
2017-Aug-13 02:26N 33°45' W 118°13'0 0.0
2017-Aug-13 01:56N 33°45' W 118°13'0 0.0
2017-Aug-13 01:26N 33°45' W 118°13'0 0.0
2017-Aug-13 00:56N 33°45' W 118°13'0 0.0
2017-Aug-13 00:26N 33°45' W 118°13'0 0.0
2017-Aug-12 23:59N 33°45' W 118°13'0 0.0
2017-Aug-12 23:29N 33°45' W 118°13'0 0.0
2017-Aug-12 22:59N 33°45' W 118°13'0 0.0
2017-Aug-12 22:29N 33°45' W 118°13'0 0.0
2017-Aug-12 21:56N 33°45' W 118°13'0 0.0
2017-Aug-12 21:26N 33°45' W 118°13'0 0.0
2017-Aug-12 20:59N 33°45' W 118°13'0 0.0
2017-Aug-12 20:26N 33°45' W 118°13'0 0.0
2017-Aug-12 19:59N 33°45' W 118°13'0 0.0
2017-Aug-12 19:29N 33°45' W 118°13'0 0.0
2017-Aug-12 18:56N 33°45' W 118°13'0 0.0
2017-Aug-12 18:29N 33°45' W 118°13'0 0.0
2017-Aug-12 17:50N 33°45' W 118°13'0 0.0
2017-Aug-12 17:29N 33°45' W 118°13'0 0.0
2017-Aug-12 16:56N 33°45' W 118°13'0 0.0
2017-Aug-12 16:29N 33°45' W 118°13'0 0.0
2017-Aug-12 15:48N 33°45' W 118°13'1 1.9
2017-Aug-12 15:31N 33°44' W 118°12'2 3.7
2017-Aug-12 15:00N 33°46' W 118°13'1 0.4
2017-Aug-12 13:30N 33°47' W 118°13'0 0.0
2017-Aug-12 11:33N 33°47' W 118°13'0 0.0
2017-Aug-12 11:30N 33°47' W 118°13'0 0.0
2017-Aug-12 10:45N 33°47' W 118°13'0 0.0
2017-Aug-12 10:30N 33°47' W 118°13'0 0.0
2017-Aug-12 10:00N 33°47' W 118°13'0 0.0
2017-Aug-12 09:30N 33°47' W 118°13'0 0.0
2017-Aug-12 09:00N 33°47' W 118°13'0 0.0
2017-Aug-12 08:30N 33°47' W 118°13'0 0.0
2017-Aug-12 08:00N 33°47' W 118°13'0 0.0
2017-Aug-12 07:30N 33°47' W 118°13'0 0.0
2017-Aug-12 06:54N 33°47' W 118°13'0 0.0
2017-Aug-12 06:18N 33°47' W 118°13'0 0.0
2017-Aug-12 06:00N 33°47' W 118°13'0 0.0
2017-Aug-12 05:30N 33°47' W 118°13'0 0.0
2017-Aug-12 05:00N 33°47' W 118°13'0 0.0
2017-Aug-12 04:30N 33°47' W 118°13'0 0.0
2017-Aug-12 04:00N 33°47' W 118°13'0 0.0
2017-Aug-12 03:30N 33°47' W 118°13'0 0.0
2017-Aug-12 03:00N 33°46' W 118°13'0 0.0
2017-Aug-12 02:30N 33°47' W 118°13'0 0.0
2017-Aug-12 02:00N 33°47' W 118°13'0 0.0
2017-Aug-12 01:30N 33°47' W 118°13'0 0.0
2017-Aug-12 01:00N 33°47' W 118°13'0 0.0
2017-Aug-12 00:30N 33°47' W 118°13'0 0.0
2017-Aug-12 00:00N 33°47' W 118°13'0 0.0
2017-Aug-11 23:30N 33°47' W 118°13'0 0.0
2017-Aug-11 23:00N 33°47' W 118°13'0 0.0
2017-Aug-11 22:30N 33°47' W 118°13'0 0.0
2017-Aug-11 22:00N 33°47' W 118°13'0 0.0
2017-Aug-11 21:30N 33°47' W 118°13'0 0.0
2017-Aug-11 21:00N 33°47' W 118°13'0 0.0
2017-Aug-11 20:30N 33°47' W 118°13'0 0.0
2017-Aug-11 20:00N 33°47' W 118°13'0 0.0
2017-Aug-11 19:27N 33°47' W 118°13'0 0.0
2017-Aug-11 19:00N 33°47' W 118°13'0 0.0
2017-Aug-11 18:30N 33°47' W 118°13'0 0.0
2017-Aug-11 18:00N 33°47' W 118°13'0 0.0
2017-Aug-11 17:30N 33°47' W 118°13'0 0.0
2017-Aug-11 17:00N 33°47' W 118°13'0 0.0
2017-Aug-11 16:30N 33°47' W 118°13'0 0.0
2017-Aug-11 16:00N 33°47' W 118°13'0 0.0
2017-Aug-11 15:24N 33°47' W 118°13'0 0.0
2017-Aug-11 15:00N 33°47' W 118°13'0 0.0
2017-Aug-11 13:42N 33°47' W 118°13'0 0.0
2017-Aug-11 13:30N 33°47' W 118°13'0 0.0
2017-Aug-11 13:00N 33°47' W 118°13'0 0.0
2017-Aug-11 12:30N 33°47' W 118°13'0 0.0
2017-Aug-11 12:00N 33°47' W 118°13'0 0.0
2017-Aug-11 11:30N 33°47' W 118°13'0 0.0
2017-Aug-11 11:00N 33°47' W 118°13'0 0.0
2017-Aug-11 10:30N 33°47' W 118°13'0 0.0
2017-Aug-11 10:00N 33°47' W 118°13'0 0.0
2017-Aug-11 09:30N 33°47' W 118°13'0 0.3
2017-Aug-11 09:00N 33°46' W 118°13'1 1.8
2017-Aug-11 08:30N 33°46' W 118°13'3 5.8
2017-Aug-11 08:00N 33°43' W 118°11'5 9.1
2017-Aug-11 07:30N 33°39' W 118°12'611.2
2017-Aug-11 07:00N 33°36' W 118°18'611.8
2017-Aug-11 06:30N 33°36' W 118°25'612.0
2017-Aug-11 06:00N 33°36' W 118°32'612.0
2017-Aug-11 05:30N 33°36' W 118°39'612.1
2017-Aug-11 05:00N 33°37' W 118°47'612.0
2017-Aug-11 04:30N 33°37' W 118°54'612.0
2017-Aug-11 04:00N 33°37' W 119°01'612.1
2017-Aug-11 03:30N 33°36' W 119°08'713.4
2017-Aug-11 03:00N 33°35' W 119°16'714.1
2017-Aug-11 02:30N 33°36' W 119°25'713.7
2017-Aug-11 02:01N 33°38' W 119°33'714.2
2017-Aug-11 01:31N 33°38' W 119°41'814.4
2017-Aug-11 00:59N 33°38' W 119°50'714.1
2017-Aug-11 00:30N 33°38' W 119°58'715.0
2017-Aug-11 00:01N 33°38' W 120°07'714.0
2017-Aug-10 23:29N 33°38' W 120°16'4 8.8
2017-Aug-10 23:01N 33°37' W 120°21'4 7.4
2017-Aug-10 22:31N 33°37' W 120°26'713.9
2017-Aug-10 22:01N 33°37' W 120°34'714.0
2017-Aug-10 21:31N 33°37' W 120°42'714.3
2017-Aug-10 21:01N 33°37' W 120°51'713.2
2017-Aug-10 20:30N 33°39' W 120°58'713.9
2017-Aug-10 20:00N 33°44' W 121°05'713.8
2017-Aug-10 19:30N 33°48' W 121°11'713.9
2017-Aug-10 19:00N 33°53' W 121°17'714.2
2017-Aug-10 18:30N 33°57' W 121°24'714.3
2017-Aug-10 17:59N 34°02' W 121°30'714.2
2017-Aug-10 17:30N 34°07' W 121°37'714.2
2017-Aug-10 17:00N 34°11' W 121°43'714.3
2017-Aug-10 16:30N 34°16' W 121°50'714.2
2017-Aug-10 16:00N 34°21' W 121°56'814.0
2017-Aug-10 15:24N 34°26' W 122°04'513.8
2017-Aug-10 15:00N 34°30' W 122°09'713.8
2017-Aug-10 14:30N 34°34' W 122°15'714.1
2017-Aug-10 14:00N 34°39' W 122°22'714.3
2017-Aug-10 13:30N 34°43' W 122°28'714.4
2017-Aug-10 13:00N 34°48' W 122°35'714.5
2017-Aug-10 12:30N 34°53' W 122°42'4314.3
2017-Aug-10 09:31N 35°21' W 123°21'015.3
2017-Aug-10 09:30N 35°22' W 123°21'1014.7
2017-Aug-10 08:50N 35°31' W 123°26'1014.8
2017-Aug-10 08:10N 35°40' W 123°31'3314.7
2017-Aug-10 05:54N 36°10' W 123°48'714.2
2017-Aug-10 05:26N 36°16' W 123°52'2919.7
2017-Aug-10 04:00N 36°42' W 124°06'3811.9 320 / 181017.3 5.4 17.516.7
2017-Aug-10 00:48N 37°16' W 124°27'714.5
2017-Aug-10 00:21N 37°22' W 124°30'614.1
2017-Aug-09 23:55N 37°28' W 124°33'613.8
2017-Aug-09 23:31N 37°33' W 124°36'813.9
2017-Aug-09 22:55N 37°40' W 124°41'613.9
2017-Aug-09 22:29N 37°46' W 124°44'713.9
2017-Aug-09 21:59N 37°52' W 124°48'713.5
2017-Aug-09 21:28N 37°58' W 124°51'613.7
2017-Aug-09 21:00N 38°04' W 124°55'713.8
2017-Aug-09 20:29N 38°11' W 124°58'714.2
2017-Aug-09 20:00N 38°17' W 125°02'1014.5
2017-Aug-09 19:21N 38°26' W 125°07'12714.5
2017-Aug-09 10:35N 40°29' W 125°50'2214.0
2017-Aug-09 08:59N 40°51' W 125°52'814.4
2017-Aug-09 08:25N 40°59' W 125°53'914.8
2017-Aug-09 07:48N 41°08' W 125°54'414.5
2017-Aug-09 07:30N 41°12' W 125°55'1414.4
2017-Aug-09 06:31N 41°26' W 125°56'013.9
2017-Aug-09 06:30N 41°27' W 125°56'2414.6
2017-Aug-09 04:50N 41°51' W 125°59'514.5
2017-Aug-09 04:29N 41°56' W 125°58'714.5
2017-Aug-09 04:00N 42°03' W 125°58'1514.5
2017-Aug-09 02:59N 42°18' W 125°56'714.5
2017-Aug-09 02:30N 42°25' W 125°56'714.4
2017-Aug-09 02:00N 42°32' W 125°55'814.6
2017-Aug-09 01:29N 42°39' W 125°56'715.1
2017-Aug-09 01:00N 42°47' W 125°56'815.2
2017-Aug-09 00:30N 42°54' W 125°57'612.0
2017-Aug-09 00:00N 43°00' W 126°00'521.8 350 / 201016.410.8 19.4
2017-Aug-08 23:46N 43°04' W 125°58'414.2
2017-Aug-08 23:30N 43°08' W 125°58'714.4
2017-Aug-08 23:00N 43°15' W 125°57'714.4
2017-Aug-08 22:30N 43°23' W 125°57'1114.4
2017-Aug-08 21:42N 43°34' W 125°57'314.3
2017-Aug-08 21:30N 43°37' W 125°57'814.3
2017-Aug-08 20:57N 43°45' W 125°57'714.4
2017-Aug-08 20:30N 43°52' W 125°56'714.3
2017-Aug-08 20:00N 43°59' W 125°56'814.3
2017-Aug-08 19:28N 44°06' W 125°56'714.2
2017-Aug-08 18:58N 44°13' W 125°56'1114.7
2017-Aug-08 18:12N 44°25' W 125°56'314.6
2017-Aug-08 18:00N 44°28' W 125°56'1214.8
2017-Aug-08 17:12N 44°39' W 125°56'314.6
2017-Aug-08 17:00N 44°42' W 125°56'714.3
2017-Aug-08 16:30N 44°49' W 125°55'1221.1
2017-Aug-08 15:56N 45°02' W 125°55'3 5.9
2017-Aug-08 15:28N 45°04' W 125°55'714.5
2017-Aug-08 15:01N 45°11' W 125°55'714.4
2017-Aug-08 14:30N 45°18' W 125°55'714.3
2017-Aug-08 14:00N 45°25' W 125°55'714.4
2017-Aug-08 13:30N 45°33' W 125°55'714.5
2017-Aug-08 13:01N 45°40' W 125°55'714.0
2017-Aug-08 12:30N 45°47' W 125°53'814.1
2017-Aug-08 11:56N 45°53' W 125°47'512.2
2017-Aug-08 11:30N 45°53' W 125°54'713.4
2017-Aug-08 11:00N 45°50' W 126°03'510.5
2017-Aug-08 10:30N 45°55' W 126°05'714.3
2017-Aug-08 10:00N 46°03' W 126°05'714.2
2017-Aug-08 09:30N 46°10' W 126°04'814.2
2017-Aug-08 08:58N 46°17' W 126°04'614.1
2017-Aug-08 08:30N 46°24' W 126°04'714.2
2017-Aug-08 08:00N 46°31' W 126°02'1114.3
2017-Aug-08 07:15N 46°41' W 126°00'414.2
2017-Aug-08 07:00N 46°45' W 126°00'714.0
2017-Aug-08 06:30N 46°52' W 126°00'714.1
2017-Aug-08 06:00N 46°59' W 126°00'714.1
2017-Aug-08 05:30N 47°06' W 126°00'714.4
2017-Aug-08 05:01N 47°13' W 126°00'1114.4
2017-Aug-08 04:17N 47°24' W 126°00'414.2
2017-Aug-08 04:00N 47°28' W 126°00'714.2
2017-Aug-08 03:31N 47°35' W 126°00'714.3
2017-Aug-08 03:00N 47°42' W 125°60'714.8
2017-Aug-08 02:31N 47°49' W 125°55'914.7
2017-Aug-08 01:55N 47°57' W 125°51'614.7
2017-Aug-08 01:30N 48°02' W 125°47'814.9
2017-Aug-08 01:00N 48°09' W 125°43'714.6
2017-Aug-08 00:30N 48°16' W 125°39'714.4
2017-Aug-08 00:00N 48°22' W 125°34'713.9
2017-Aug-07 23:31N 48°28' W 125°29'713.4
2017-Aug-07 23:01N 48°30' W 125°19'713.9
2017-Aug-07 22:30N 48°31' W 125°09'713.5
2017-Aug-07 21:59N 48°31' W 124°58'713.7
2017-Aug-07 21:30N 48°31' W 124°48'713.4
2017-Aug-07 21:00N 48°29' W 124°38'713.3
2017-Aug-07 20:30N 48°27' W 124°29'713.4
2017-Aug-07 20:00N 48°24' W 124°20'713.7
2017-Aug-07 19:30N 48°21' W 124°10'  
Track history (hours):
 
Tides and Currents Weather Stations Pressure Air Temp Water Temp Dewpoint Dewpoint Depression Visibility Wind Speed Wind Dir Waves Ship Positions

Overseas Boston

Owner: ASC Leasing VI, Inc., Philadelphia, PA. More information available from US FCC via Universal Licensing System and Coast Guard Vessel Documentation Center.

Last reported at 2017-Aug-17 19:20 UTC. Time now 2017-Aug-17 19:32 UTC.
Position N 43°15' W 126°00'.

Length 183 m; draft 8.2 m.

Type: Tanker. MMSI: 338221000.

Date/timePositionNaut miles runAvg speedWind from/ knotsBaromVisibWave heightAir tempDewpointWater temp
2017-Aug-17 19:20N 43°15' W 126°00'513.6
2017-Aug-17 19:00N 43°10' W 126°00'713.5
2017-Aug-17 18:30N 43°04' W 126°00'1113.9
2017-Aug-17 17:42N 42°52' W 126°00'513.9
2017-Aug-17 17:21N 42°47' W 126°00'2713.4
2017-Aug-17 15:19N 42°20' W 126°00'913.2
2017-Aug-17 14:40N 42°12' W 126°00'612.7
2017-Aug-17 14:11N 42°06' W 126°00'212.5
2017-Aug-17 13:59N 42°03' W 126°00'912.4
2017-Aug-17 13:15N 41°54' W 125°59'312.3
2017-Aug-17 13:00N 41°51' W 125°59'612.1
2017-Aug-17 12:30N 41°45' W 125°58'611.9
2017-Aug-17 12:00N 41°39' W 125°58'611.4
2017-Aug-17 11:30N 41°33' W 125°57'611.1
2017-Aug-17 11:00N 41°28' W 125°56'611.0
2017-Aug-17 10:30N 41°22' W 125°56'510.7
2017-Aug-17 10:00N 41°17' W 125°55'610.8
2017-Aug-17 09:26N 41°11' W 125°55'610.8
2017-Aug-17 08:52N 41°05' W 125°54'510.5
2017-Aug-17 08:26N 41°00' W 125°53'2910.3
2017-Aug-17 05:38N 40°31' W 125°50'14012.4
2017-Aug-16 18:24N 38°17' W 125°02'612.5
2017-Aug-16 17:57N 38°12' W 124°59'512.2
2017-Aug-16 17:30N 38°07' W 124°56'812.7
2017-Aug-16 16:55N 37°60' W 124°52'613.5
2017-Aug-16 16:28N 37°54' W 124°49'813.7
2017-Aug-16 15:55N 37°48' W 124°45'613.5
2017-Aug-16 15:30N 37°42' W 124°42'813.5
2017-Aug-16 14:54N 37°35' W 124°38'12114.5
2017-Aug-16 06:35N 35°45' W 123°34'214.5
2017-Aug-16 06:28N 35°44' W 123°34'814.7
2017-Aug-16 05:54N 35°36' W 123°29'614.6
2017-Aug-16 05:30N 35°31' W 123°26'714.4
2017-Aug-16 05:00N 35°24' W 123°23'713.9
2017-Aug-16 04:28N 35°18' W 123°18'714.4
2017-Aug-16 03:58N 35°14' W 123°11'814.3
2017-Aug-16 03:23N 35°08' W 123°03'614.7
2017-Aug-16 02:59N 35°04' W 122°58'715.1
2017-Aug-16 02:30N 35°00' W 122°51'1114.9
2017-Aug-16 01:46N 34°52' W 122°41'615.2
2017-Aug-16 01:23N 34°49' W 122°36'614.8
2017-Aug-16 00:57N 34°44' W 122°30'715.0
2017-Aug-16 00:30N 34°40' W 122°24'714.6
2017-Aug-16 00:00N 34°35' W 122°17'814.5
2017-Aug-15 23:27N 34°30' W 122°09'714.8
2017-Aug-15 22:59N 34°26' W 122°03'1114.9
2017-Aug-15 22:15N 34°18' W 121°53'414.6
2017-Aug-15 22:00N 34°16' W 121°50'714.6
2017-Aug-15 21:30N 34°11' W 121°43'714.9
2017-Aug-15 21:00N 34°06' W 121°36'814.9
2017-Aug-15 20:29N 34°01' W 121°29'714.6
2017-Aug-15 20:00N 33°57' W 121°22'714.6
2017-Aug-15 19:30N 33°53' W 121°15'714.4
2017-Aug-15 19:00N 33°49' W 121°08'714.4
2017-Aug-15 18:30N 33°45' W 121°01'714.3
2017-Aug-15 18:00N 33°42' W 120°53'714.3
2017-Aug-15 17:30N 33°38' W 120°46'713.8
2017-Aug-15 17:00N 33°37' W 120°37'714.7
2017-Aug-15 16:30N 33°38' W 120°29'815.0
2017-Aug-15 16:00N 33°38' W 120°19'714.8
2017-Aug-15 15:30N 33°39' W 120°11'714.5
2017-Aug-15 15:00N 33°39' W 120°02'714.9
2017-Aug-15 14:30N 33°39' W 119°53'815.6
2017-Aug-15 14:00N 33°39' W 119°44'815.5
2017-Aug-15 13:30N 33°40' W 119°34'714.9
2017-Aug-15 13:00N 33°40' W 119°26'714.7
2017-Aug-15 12:30N 33°41' W 119°17'714.4
2017-Aug-15 12:00N 33°41' W 119°08'612.3
2017-Aug-15 11:30N 33°41' W 119°01'611.8
2017-Aug-15 11:00N 33°40' W 118°54'611.7
2017-Aug-15 10:30N 33°40' W 118°47'611.8
2017-Aug-15 10:00N 33°39' W 118°39'611.8
2017-Aug-15 09:30N 33°39' W 118°32'611.7
2017-Aug-15 09:00N 33°38' W 118°25'611.7
2017-Aug-15 08:30N 33°38' W 118°18'510.2
2017-Aug-15 08:00N 33°39' W 118°12'4 8.4
2017-Aug-15 07:31N 33°43' W 118°11'2 1.3
2017-Aug-15 06:12N 33°44' W 118°13'0 0.0
2017-Aug-15 05:30N 33°44' W 118°13'0 0.0
2017-Aug-15 04:54N 33°44' W 118°13'0 0.0
2017-Aug-15 04:30N 33°44' W 118°13'0 0.0
2017-Aug-15 04:00N 33°44' W 118°13'0 0.0
2017-Aug-15 03:30N 33°44' W 118°13'0 0.0
2017-Aug-15 03:00N 33°44' W 118°13'0 0.0
2017-Aug-15 02:30N 33°44' W 118°13'0 0.0
2017-Aug-15 01:57N 33°44' W 118°13'0 0.0
2017-Aug-15 01:30N 33°44' W 118°13'0 0.0
2017-Aug-15 01:00N 33°44' W 118°13'0 0.0
2017-Aug-15 00:30N 33°44' W 118°13'0 0.0
2017-Aug-15 00:00N 33°44' W 118°13'0 0.0
2017-Aug-14 23:30N 33°44' W 118°13'0 0.1
2017-Aug-14 23:00N 33°44' W 118°13'0 0.0
2017-Aug-14 22:30N 33°44' W 118°13'0 0.0
2017-Aug-14 22:01N 33°44' W 118°13'0 0.0
2017-Aug-14 21:30N 33°44' W 118°13'0 0.2
2017-Aug-14 21:01N 33°44' W 118°13'1 1.5
2017-Aug-14 20:31N 33°43' W 118°14'3 5.2
2017-Aug-14 20:01N 33°44' W 118°17'1 1.8
2017-Aug-14 19:28N 33°45' W 118°16'0 0.0
2017-Aug-14 18:58N 33°45' W 118°16'0 0.0
2017-Aug-14 18:28N 33°45' W 118°16'0 0.0
2017-Aug-14 17:58N 33°45' W 118°16'0 0.0
2017-Aug-14 17:28N 33°45' W 118°16'0 0.0
2017-Aug-14 16:58N 33°45' W 118°16'0 0.0
2017-Aug-14 16:28N 33°45' W 118°16'0 0.0
2017-Aug-14 15:52N 33°45' W 118°16'0 0.0
2017-Aug-14 15:28N 33°45' W 118°16'0 0.0
2017-Aug-14 14:58N 33°45' W 118°16'0 0.0
2017-Aug-14 14:28N 33°45' W 118°16'0 0.0
2017-Aug-14 13:58N 33°45' W 118°16'0 0.0
2017-Aug-14 13:28N 33°45' W 118°16'0 0.0
2017-Aug-14 12:58N 33°45' W 118°16'0 0.0
2017-Aug-14 12:28N 33°45' W 118°16'0 0.0
2017-Aug-14 11:58N 33°45' W 118°16'0 0.0
2017-Aug-14 11:28N 33°45' W 118°16'0 0.0
2017-Aug-14 10:55N 33°45' W 118°16'0 0.0
2017-Aug-14 10:25N 33°45' W 118°16'0 0.0
2017-Aug-14 09:58N 33°45' W 118°16'0 0.0
2017-Aug-14 09:28N 33°45' W 118°16'0 0.0
2017-Aug-14 08:55N 33°45' W 118°16'0 0.0
2017-Aug-14 08:28N 33°45' W 118°16'0 0.0
2017-Aug-14 07:58N 33°45' W 118°16'0 0.0
2017-Aug-14 07:28N 33°45' W 118°16'0 0.0
2017-Aug-14 06:58N 33°45' W 118°16'0 0.0
2017-Aug-14 06:28N 33°45' W 118°16'0 0.0
2017-Aug-14 05:58N 33°45' W 118°16'0 0.0
2017-Aug-14 05:28N 33°45' W 118°16'0 0.0
2017-Aug-14 04:58N 33°45' W 118°16'0 0.0
2017-Aug-14 04:28N 33°45' W 118°16'0 0.0
2017-Aug-14 03:58N 33°45' W 118°16'0 0.0
2017-Aug-14 03:28N 33°45' W 118°16'0 0.0
2017-Aug-14 02:58N 33°45' W 118°16'0 0.0
2017-Aug-14 02:28N 33°45' W 118°16'0 0.0
2017-Aug-14 01:58N 33°45' W 118°16'0 0.0
2017-Aug-14 01:28N 33°45' W 118°16'0 0.0
2017-Aug-14 00:58N 33°45' W 118°16'0 0.0
2017-Aug-14 00:28N 33°45' W 118°16'0 0.0
2017-Aug-13 23:58N 33°45' W 118°16'0 0.0
2017-Aug-13 23:28N 33°45' W 118°16'0 0.0
2017-Aug-13 22:58N 33°45' W 118°16'0 0.0
2017-Aug-13 22:28N 33°45' W 118°16'0 0.0
2017-Aug-13 21:58N 33°45' W 118°16'0 0.0
2017-Aug-13 21:28N 33°45' W 118°16'0 0.0
2017-Aug-13 20:58N 33°45' W 118°16'0 0.0
2017-Aug-13 20:28N 33°45' W 118°16'0 0.0
2017-Aug-13 19:55N 33°45' W 118°16'0 0.0
2017-Aug-13 19:28N 33°45' W 118°16'0 0.0
2017-Aug-13 18:58N 33°45' W 118°16'0 0.0
2017-Aug-13 18:28N 33°45' W 118°16'0 0.0
2017-Aug-13 17:52N 33°45' W 118°16'0 0.0
2017-Aug-13 17:28N 33°45' W 118°16'0 0.0
2017-Aug-13 16:58N 33°45' W 118°16'0 0.0
2017-Aug-13 16:28N 33°45' W 118°16'0 0.0
2017-Aug-13 15:58N 33°45' W 118°16'0 0.0
2017-Aug-13 15:28N 33°45' W 118°16'0 0.0
2017-Aug-13 14:55N 33°45' W 118°16'0 0.0
2017-Aug-13 14:28N 33°45' W 118°16'0 0.0
2017-Aug-13 13:58N 33°45' W 118°16'0 0.0
2017-Aug-13 13:28N 33°45' W 118°16'0 0.0
2017-Aug-13 12:58N 33°45' W 118°16'0 0.7
2017-Aug-13 12:30N 33°45' W 118°16'2 3.6
2017-Aug-13 12:00N 33°43' W 118°16'3 6.4
2017-Aug-13 11:29N 33°44' W 118°12'1 1.3
2017-Aug-13 11:00N 33°45' W 118°13'0 0.0
2017-Aug-13 10:29N 33°45' W 118°13'0 0.0
2017-Aug-13 09:59N 33°45' W 118°13'0 0.0
2017-Aug-13 09:29N 33°45' W 118°13'0 0.0
2017-Aug-13 08:59N 33°45' W 118°13'0 0.0
2017-Aug-13 08:26N 33°45' W 118°13'0 0.0
2017-Aug-13 07:56N 33°45' W 118°13'0 0.0
2017-Aug-13 07:29N 33°45' W 118°13'0 0.0
2017-Aug-13 06:59N 33°45' W 118°13'0 0.0
2017-Aug-13 06:23N 33°45' W 118°13'0 0.0
2017-Aug-13 05:59N 33°45' W 118°13'0 0.0
2017-Aug-13 05:26N 33°45' W 118°13'0 0.0
2017-Aug-13 04:50N 33°45' W 118°13'0 0.0
2017-Aug-13 04:26N 33°45' W 118°13'0 0.0
2017-Aug-13 03:59N 33°45' W 118°13'0 0.0
2017-Aug-13 03:29N 33°45' W 118°13'0 0.0
2017-Aug-13 02:56N 33°45' W 118°13'0 0.0
2017-Aug-13 02:26N 33°45' W 118°13'0 0.0
2017-Aug-13 01:56N 33°45' W 118°13'0 0.0
2017-Aug-13 01:26N 33°45' W 118°13'0 0.0
2017-Aug-13 00:56N 33°45' W 118°13'0 0.0
2017-Aug-13 00:26N 33°45' W 118°13'0 0.0
2017-Aug-12 23:59N 33°45' W 118°13'0 0.0
2017-Aug-12 23:29N 33°45' W 118°13'0 0.0
2017-Aug-12 22:59N 33°45' W 118°13'0 0.0
2017-Aug-12 22:29N 33°45' W 118°13'0 0.0
2017-Aug-12 21:56N 33°45' W 118°13'0 0.0
2017-Aug-12 21:26N 33°45' W 118°13'0 0.0
2017-Aug-12 20:59N 33°45' W 118°13'0 0.0
2017-Aug-12 20:26N 33°45' W 118°13'0 0.0
2017-Aug-12 19:59N 33°45' W 118°13'0 0.0
2017-Aug-12 19:29N 33°45' W 118°13'0 0.0
2017-Aug-12 18:56N 33°45' W 118°13'0 0.0
2017-Aug-12 18:29N 33°45' W 118°13'0 0.0
2017-Aug-12 17:50N 33°45' W 118°13'0 0.0
2017-Aug-12 17:29N 33°45' W 118°13'0 0.0
2017-Aug-12 16:56N 33°45' W 118°13'0 0.0
2017-Aug-12 16:29N 33°45' W 118°13'0 0.0
2017-Aug-12 15:48N 33°45' W 118°13'1 1.9
2017-Aug-12 15:31N 33°44' W 118°12'2 3.7
2017-Aug-12 15:00N 33°46' W 118°13'1 0.4
2017-Aug-12 13:30N 33°47' W 118°13'0 0.0
2017-Aug-12 11:33N 33°47' W 118°13'0 0.0
2017-Aug-12 11:30N 33°47' W 118°13'0 0.0
2017-Aug-12 10:45N 33°47' W 118°13'0 0.0
2017-Aug-12 10:30N 33°47' W 118°13'0 0.0
2017-Aug-12 10:00N 33°47' W 118°13'0 0.0
2017-Aug-12 09:30N 33°47' W 118°13'0 0.0
2017-Aug-12 09:00N 33°47' W 118°13'0 0.0
2017-Aug-12 08:30N 33°47' W 118°13'0 0.0
2017-Aug-12 08:00N 33°47' W 118°13'0 0.0
2017-Aug-12 07:30N 33°47' W 118°13'0 0.0
2017-Aug-12 06:54N 33°47' W 118°13'0 0.0
2017-Aug-12 06:18N 33°47' W 118°13'0 0.0
2017-Aug-12 06:00N 33°47' W 118°13'0 0.0
2017-Aug-12 05:30N 33°47' W 118°13'0 0.0
2017-Aug-12 05:00N 33°47' W 118°13'0 0.0
2017-Aug-12 04:30N 33°47' W 118°13'0 0.0
2017-Aug-12 04:00N 33°47' W 118°13'0 0.0
2017-Aug-12 03:30N 33°47' W 118°13'0 0.0
2017-Aug-12 03:00N 33°46' W 118°13'0 0.0
2017-Aug-12 02:30N 33°47' W 118°13'0 0.0
2017-Aug-12 02:00N 33°47' W 118°13'0 0.0
2017-Aug-12 01:30N 33°47' W 118°13'0 0.0
2017-Aug-12 01:00N 33°47' W 118°13'0 0.0
2017-Aug-12 00:30N 33°47' W 118°13'0 0.0
2017-Aug-12 00:00N 33°47' W 118°13'0 0.0
2017-Aug-11 23:30N 33°47' W 118°13'0 0.0
2017-Aug-11 23:00N 33°47' W 118°13'0 0.0
2017-Aug-11 22:30N 33°47' W 118°13'0 0.0
2017-Aug-11 22:00N 33°47' W 118°13'0 0.0
2017-Aug-11 21:30N 33°47' W 118°13'0 0.0
2017-Aug-11 21:00N 33°47' W 118°13'0 0.0
2017-Aug-11 20:30N 33°47' W 118°13'0 0.0
2017-Aug-11 20:00N 33°47' W 118°13'0 0.0
2017-Aug-11 19:27N 33°47' W 118°13'0 0.0
2017-Aug-11 19:00N 33°47' W 118°13'0 0.0
2017-Aug-11 18:30N 33°47' W 118°13'0 0.0
2017-Aug-11 18:00N 33°47' W 118°13'0 0.0
2017-Aug-11 17:30N 33°47' W 118°13'0 0.0
2017-Aug-11 17:00N 33°47' W 118°13'0 0.0
2017-Aug-11 16:30N 33°47' W 118°13'0 0.0
2017-Aug-11 16:00N 33°47' W 118°13'0 0.0
2017-Aug-11 15:24N 33°47' W 118°13'0 0.0
2017-Aug-11 15:00N 33°47' W 118°13'0 0.0
2017-Aug-11 13:42N 33°47' W 118°13'0 0.0
2017-Aug-11 13:30N 33°47' W 118°13'0 0.0
2017-Aug-11 13:00N 33°47' W 118°13'0 0.0
2017-Aug-11 12:30N 33°47' W 118°13'0 0.0
2017-Aug-11 12:00N 33°47' W 118°13'0 0.0
2017-Aug-11 11:30N 33°47' W 118°13'0 0.0
2017-Aug-11 11:00N 33°47' W 118°13'0 0.0
2017-Aug-11 10:30N 33°47' W 118°13'0 0.0
2017-Aug-11 10:00N 33°47' W 118°13'0 0.0
2017-Aug-11 09:30N 33°47' W 118°13'0 0.3
2017-Aug-11 09:00N 33°46' W 118°13'1 1.8
2017-Aug-11 08:30N 33°46' W 118°13'3 5.8
2017-Aug-11 08:00N 33°43' W 118°11'5 9.1
2017-Aug-11 07:30N 33°39' W 118°12'611.2
2017-Aug-11 07:00N 33°36' W 118°18'611.8
2017-Aug-11 06:30N 33°36' W 118°25'612.0
2017-Aug-11 06:00N 33°36' W 118°32'612.0
2017-Aug-11 05:30N 33°36' W 118°39'612.1
2017-Aug-11 05:00N 33°37' W 118°47'612.0
2017-Aug-11 04:30N 33°37' W 118°54'612.0
2017-Aug-11 04:00N 33°37' W 119°01'612.1
2017-Aug-11 03:30N 33°36' W 119°08'713.4
2017-Aug-11 03:00N 33°35' W 119°16'714.1
2017-Aug-11 02:30N 33°36' W 119°25'713.7
2017-Aug-11 02:01N 33°38' W 119°33'714.2
2017-Aug-11 01:31N 33°38' W 119°41'814.4
2017-Aug-11 00:59N 33°38' W 119°50'714.1
2017-Aug-11 00:30N 33°38' W 119°58'715.0
2017-Aug-11 00:01N 33°38' W 120°07'714.0
2017-Aug-10 23:29N 33°38' W 120°16'4 8.8
2017-Aug-10 23:01N 33°37' W 120°21'4 7.4
2017-Aug-10 22:31N 33°37' W 120°26'713.9
2017-Aug-10 22:01N 33°37' W 120°34'714.0
2017-Aug-10 21:31N 33°37' W 120°42'714.3
2017-Aug-10 21:01N 33°37' W 120°51'713.2
2017-Aug-10 20:30N 33°39' W 120°58'713.9
2017-Aug-10 20:00N 33°44' W 121°05'713.8
2017-Aug-10 19:30N 33°48' W 121°11'713.9
2017-Aug-10 19:00N 33°53' W 121°17'714.2
2017-Aug-10 18:30N 33°57' W 121°24'714.3
2017-Aug-10 17:59N 34°02' W 121°30'714.2
2017-Aug-10 17:30N 34°07' W 121°37'714.2
2017-Aug-10 17:00N 34°11' W 121°43'714.3
2017-Aug-10 16:30N 34°16' W 121°50'714.2
2017-Aug-10 16:00N 34°21' W 121°56'814.0
2017-Aug-10 15:24N 34°26' W 122°04'513.8
2017-Aug-10 15:00N 34°30' W 122°09'713.8
2017-Aug-10 14:30N 34°34' W 122°15'714.1
2017-Aug-10 14:00N 34°39' W 122°22'714.3
2017-Aug-10 13:30N 34°43' W 122°28'714.4
2017-Aug-10 13:00N 34°48' W 122°35'714.5
2017-Aug-10 12:30N 34°53' W 122°42'4314.3
2017-Aug-10 09:31N 35°21' W 123°21'015.3
2017-Aug-10 09:30N 35°22' W 123°21'1014.7
2017-Aug-10 08:50N 35°31' W 123°26'1014.8
2017-Aug-10 08:10N 35°40' W 123°31'3314.7
2017-Aug-10 05:54N 36°10' W 123°48'714.2
2017-Aug-10 05:26N 36°16' W 123°52'2919.7
2017-Aug-10 04:00N 36°42' W 124°06'3811.9 320 / 181017.3 5.4 17.516.7
2017-Aug-10 00:48N 37°16' W 124°27'714.5
2017-Aug-10 00:21N 37°22' W 124°30'614.1
2017-Aug-09 23:55N 37°28' W 124°33'613.8
2017-Aug-09 23:31N 37°33' W 124°36'813.9
2017-Aug-09 22:55N 37°40' W 124°41'613.9
2017-Aug-09 22:29N 37°46' W 124°44'713.9
2017-Aug-09 21:59N 37°52' W 124°48'713.5
2017-Aug-09 21:28N 37°58' W 124°51'613.7
2017-Aug-09 21:00N 38°04' W 124°55'713.8
2017-Aug-09 20:29N 38°11' W 124°58'714.2
2017-Aug-09 20:00N 38°17' W 125°02'1014.5
2017-Aug-09 19:21N 38°26' W 125°07'12714.5
2017-Aug-09 10:35N 40°29' W 125°50'2214.0
2017-Aug-09 08:59N 40°51' W 125°52'814.4
2017-Aug-09 08:25N 40°59' W 125°53'914.8
2017-Aug-09 07:48N 41°08' W 125°54'414.5
2017-Aug-09 07:30N 41°12' W 125°55'1414.4
2017-Aug-09 06:31N 41°26' W 125°56'013.9
2017-Aug-09 06:30N 41°27' W 125°56'2414.6
2017-Aug-09 04:50N 41°51' W 125°59'514.5
2017-Aug-09 04:29N 41°56' W 125°58'714.5
2017-Aug-09 04:00N 42°03' W 125°58'1514.5
2017-Aug-09 02:59N 42°18' W 125°56'714.5
2017-Aug-09 02:30N 42°25' W 125°56'714.4
2017-Aug-09 02:00N 42°32' W 125°55'814.6
2017-Aug-09 01:29N 42°39' W 125°56'715.1
2017-Aug-09 01:00N 42°47' W 125°56'815.2
2017-Aug-09 00:30N 42°54' W 125°57'612.0
2017-Aug-09 00:00N 43°00' W 126°00'521.8 350 / 201016.410.8 19.4
2017-Aug-08 23:46N 43°04' W 125°58'414.2
2017-Aug-08 23:30N 43°08' W 125°58'714.4
2017-Aug-08 23:00N 43°15' W 125°57'714.4
2017-Aug-08 22:30N 43°23' W 125°57'1114.4
2017-Aug-08 21:42N 43°34' W 125°57'314.3
2017-Aug-08 21:30N 43°37' W 125°57'814.3
2017-Aug-08 20:57N 43°45' W 125°57'714.4
2017-Aug-08 20:30N 43°52' W 125°56'714.3
2017-Aug-08 20:00N 43°59' W 125°56'814.3
2017-Aug-08 19:28N 44°06' W 125°56'714.2
2017-Aug-08 18:58N 44°13' W 125°56'1114.7
2017-Aug-08 18:12N 44°25' W 125°56'314.6
2017-Aug-08 18:00N 44°28' W 125°56'1214.8
2017-Aug-08 17:12N 44°39' W 125°56'314.6
2017-Aug-08 17:00N 44°42' W 125°56'714.3
2017-Aug-08 16:30N 44°49' W 125°55'1221.1
2017-Aug-08 15:56N 45°02' W 125°55'3 5.9
2017-Aug-08 15:28N 45°04' W 125°55'714.5
2017-Aug-08 15:01N 45°11' W 125°55'714.4
2017-Aug-08 14:30N 45°18' W 125°55'714.3
2017-Aug-08 14:00N 45°25' W 125°55'714.4
2017-Aug-08 13:30N 45°33' W 125°55'714.5
2017-Aug-08 13:01N 45°40' W 125°55'714.0
2017-Aug-08 12:30N 45°47' W 125°53'814.1
2017-Aug-08 11:56N 45°53' W 125°47'512.2
2017-Aug-08 11:30N 45°53' W 125°54'713.4
2017-Aug-08 11:00N 45°50' W 126°03'510.5
2017-Aug-08 10:30N 45°55' W 126°05'714.3
2017-Aug-08 10:00N 46°03' W 126°05'714.2
2017-Aug-08 09:30N 46°10' W 126°04'814.2
2017-Aug-08 08:58N 46°17' W 126°04'614.1
2017-Aug-08 08:30N 46°24' W 126°04'714.2
2017-Aug-08 08:00N 46°31' W 126°02'1114.3
2017-Aug-08 07:15N 46°41' W 126°00'414.2
2017-Aug-08 07:00N 46°45' W 126°00'714.0
2017-Aug-08 06:30N 46°52' W 126°00'714.1
2017-Aug-08 06:00N 46°59' W 126°00'714.1
2017-Aug-08 05:30N 47°06' W 126°00'714.4
2017-Aug-08 05:01N 47°13' W 126°00'1114.4
2017-Aug-08 04:17N 47°24' W 126°00'414.2
2017-Aug-08 04:00N 47°28' W 126°00'714.2
2017-Aug-08 03:31N 47°35' W 126°00'714.3
2017-Aug-08 03:00N 47°42' W 125°60'714.8
2017-Aug-08 02:31N 47°49' W 125°55'914.7
2017-Aug-08 01:55N 47°57' W 125°51'614.7
2017-Aug-08 01:30N 48°02' W 125°47'814.9
2017-Aug-08 01:00N 48°09' W 125°43'714.6
2017-Aug-08 00:30N 48°16' W 125°39'714.4
2017-Aug-08 00:00N 48°22' W 125°34'713.9
2017-Aug-07 23:31N 48°28' W 125°29'713.4
2017-Aug-07 23:01N 48°30' W 125°19'713.9
2017-Aug-07 22:30N 48°31' W 125°09'713.5
2017-Aug-07 21:59N 48°31' W 124°58'713.7
2017-Aug-07 21:30N 48°31' W 124°48'713.4
2017-Aug-07 21:00N 48°29' W 124°38'713.3
2017-Aug-07 20:30N 48°27' W 124°29'713.4
2017-Aug-07 20:00N 48°24' W 124°20'713.7
2017-Aug-07 19:30N 48°21' W 124°10'  

Dump ship's entire track history